sensor_id;sensor_type;location;lat;lon;timestamp;pressure;altitude;pressure_sealevel;temperature;humidity
10060;BME280;5069;49.306;8.636;2023-08-06T00:01:12;99632.84;;;17.94;100.00
10060;BME280;5069;49.306;8.636;2023-08-06T00:04:14;99640.31;;;17.89;100.00
10060;BME280;5069;49.306;8.636;2023-08-06T00:07:15;99642.16;;;17.88;100.00
10060;BME280;5069;49.306;8.636;2023-08-06T00:10:17;99643.22;;;17.86;100.00
10060;BME280;5069;49.306;8.636;2023-08-06T00:13:18;99629.03;;;17.85;100.00
10060;BME280;5069;49.306;8.636;2023-08-06T00:16:20;99622.84;;;17.85;100.00
10060;BME280;5069;49.306;8.636;2023-08-06T00:19:22;99629.38;;;17.81;100.00
10060;BME280;5069;49.306;8.636;2023-08-06T00:22:23;99626.72;;;17.81;100.00
10060;BME280;5069;49.306;8.636;2023-08-06T00:25:25;99612.03;;;17.75;100.00
10060;BME280;5069;49.306;8.636;2023-08-06T00:28:26;99612.91;;;17.75;100.00
10060;BME280;5069;49.306;8.636;2023-08-06T00:31:27;99612.91;;;17.75;100.00
10060;BME280;5069;49.306;8.636;2023-08-06T00:34:29;99604.41;;;17.70;100.00
10060;BME280;5069;49.306;8.636;2023-08-06T00:37:31;99606.94;;;17.72;100.00
10060;BME280;5069;49.306;8.636;2023-08-06T00:40:33;99602.22;;;17.75;100.00
10060;BME280;5069;49.306;8.636;2023-08-06T00:43:34;99595.94;;;17.77;100.00
10060;BME280;5069;49.306;8.636;2023-08-06T00:46:36;99584.75;;;17.71;100.00
10060;BME280;5069;49.306;8.636;2023-08-06T00:49:38;99585.59;;;17.72;100.00
10060;BME280;5069;49.306;8.636;2023-08-06T00:52:40;99576.75;;;17.71;100.00
10060;BME280;5069;49.306;8.636;2023-08-06T00:55:44;99585.00;;;17.68;100.00
10060;BME280;5069;49.306;8.636;2023-08-06T00:58:46;99583.19;;;17.69;100.00
10060;BME280;5069;49.306;8.636;2023-08-06T01:01:48;99582.22;;;17.70;100.00
10060;BME280;5069;49.306;8.636;2023-08-06T01:04:51;99575.78;;;17.72;100.00
10060;BME280;5069;49.306;8.636;2023-08-06T01:08:15;99570.47;;;17.72;100.00
10060;BME280;5069;49.306;8.636;2023-08-06T01:11:51;99566.34;;;17.68;100.00
10060;BME280;5069;49.306;8.636;2023-08-06T01:15:07;99561.00;;;17.68;100.00
10060;BME280;5069;49.306;8.636;2023-08-06T01:18:13;99565.13;;;17.72;100.00
10060;BME280;5069;49.306;8.636;2023-08-06T01:21:15;99559.09;;;17.70;100.00
10060;BME280;5069;49.306;8.636;2023-08-06T01:24:17;99546.63;;;17.71;100.00
10060;BME280;5069;49.306;8.636;2023-08-06T01:27:42;99547.09;;;17.76;100.00
10060;BME280;5069;49.306;8.636;2023-08-06T01:30:46;99535.84;;;17.84;100.00
10060;BME280;5069;49.306;8.636;2023-08-06T01:33:49;99535.84;;;17.84;100.00
10060;BME280;5069;49.306;8.636;2023-08-06T01:36:52;99531.81;;;17.78;100.00
10060;BME280;5069;49.306;8.636;2023-08-06T01:39:54;99535.44;;;17.77;100.00
10060;BME280;5069;49.306;8.636;2023-08-06T01:42:55;99534.84;;;17.73;100.00
10060;BME280;5069;49.306;8.636;2023-08-06T01:45:56;99539.94;;;17.65;100.00
10060;BME280;5069;49.306;8.636;2023-08-06T01:48:58;99521.81;;;17.58;100.00
10060;BME280;5069;49.306;8.636;2023-08-06T01:52:00;99527.25;;;17.56;100.00
10060;BME280;5069;49.306;8.636;2023-08-06T01:55:02;99521.91;;;17.45;100.00
10060;BME280;5069;49.306;8.636;2023-08-06T01:58:03;99533.50;;;17.44;100.00
10060;BME280;5069;49.306;8.636;2023-08-06T02:01:05;99527.47;;;17.42;100.00
10060;BME280;5069;49.306;8.636;2023-08-06T02:04:06;99520.44;;;17.41;100.00
10060;BME280;5069;49.306;8.636;2023-08-06T02:07:08;99520.66;;;17.38;100.00
10060;BME280;5069;49.306;8.636;2023-08-06T02:10:09;99509.75;;;17.30;100.00
10060;BME280;5069;49.306;8.636;2023-08-06T02:13:11;99501.50;;;17.33;100.00
10060;BME280;5069;49.306;8.636;2023-08-06T02:16:12;99505.66;;;17.37;100.00
10060;BME280;5069;49.306;8.636;2023-08-06T02:19:14;99509.03;;;17.39;100.00
10060;BME280;5069;49.306;8.636;2023-08-06T02:22:15;99506.88;;;17.44;100.00
10060;BME280;5069;49.306;8.636;2023-08-06T02:25:17;99520.69;;;17.49;100.00
10060;BME280;5069;49.306;8.636;2023-08-06T02:28:18;99504.94;;;17.46;100.00
10060;BME280;5069;49.306;8.636;2023-08-06T02:31:20;99512.84;;;17.48;100.00
10060;BME280;5069;49.306;8.636;2023-08-06T02:34:21;99504.94;;;17.46;100.00
10060;BME280;5069;49.306;8.636;2023-08-06T02:37:23;99500.34;;;17.37;100.00
10060;BME280;5069;49.306;8.636;2023-08-06T02:40:24;99513.91;;;17.45;100.00
10060;BME280;5069;49.306;8.636;2023-08-06T02:43:26;99510.97;;;17.37;100.00
10060;BME280;5069;49.306;8.636;2023-08-06T02:46:27;99503.31;;;17.32;100.00
10060;BME280;5069;49.306;8.636;2023-08-06T02:49:29;99501.25;;;17.25;100.00
10060;BME280;5069;49.306;8.636;2023-08-06T02:52:30;99512.63;;;17.27;100.00
10060;BME280;5069;49.306;8.636;2023-08-06T02:55:32;99509.94;;;17.27;100.00
10060;BME280;5069;49.306;8.636;2023-08-06T02:58:39;99512.50;;;17.28;100.00
10060;BME280;5069;49.306;8.636;2023-08-06T03:01:50;99512.13;;;17.22;100.00
10060;BME280;5069;49.306;8.636;2023-08-06T03:04:59;99511.91;;;17.25;100.00
10060;BME280;5069;49.306;8.636;2023-08-06T03:08:04;99505.72;;;17.24;100.00
10060;BME280;5069;49.306;8.636;2023-08-06T03:11:08;99491.44;;;17.25;100.00
10060;BME280;5069;49.306;8.636;2023-08-06T03:14:09;99492.25;;;17.26;100.00
10060;BME280;5069;49.306;8.636;2023-08-06T03:17:12;99483.94;;;17.30;100.00
10060;BME280;5069;49.306;8.636;2023-08-06T03:20:14;99486.25;;;17.35;100.00
10060;BME280;5069;49.306;8.636;2023-08-06T03:23:16;99499.78;;;17.32;100.00
10060;BME280;5069;49.306;8.636;2023-08-06T03:26:18;99489.28;;;17.30;100.00
10060;BME280;5069;49.306;8.636;2023-08-06T03:29:21;99488.44;;;17.30;100.00
10060;BME280;5069;49.306;8.636;2023-08-06T03:32:24;99483.72;;;17.33;100.00
10060;BME280;5069;49.306;8.636;2023-08-06T03:35:27;99483.94;;;17.30;100.00
10060;BME280;5069;49.306;8.636;2023-08-06T03:38:30;99489.28;;;17.30;100.00
10060;BME280;5069;49.306;8.636;2023-08-06T03:41:33;99492.06;;;17.29;100.00
10060;BME280;5069;49.306;8.636;2023-08-06T03:44:34;99490.81;;;17.22;100.00
10060;BME280;5069;49.306;8.636;2023-08-06T03:47:36;99489.38;;;17.29;100.00
10060;BME280;5069;49.306;8.636;2023-08-06T03:50:38;99486.06;;;17.14;100.00
10060;BME280;5069;49.306;8.636;2023-08-06T03:53:44;99485.09;;;17.15;100.00
10060;BME280;5069;49.306;8.636;2023-08-06T03:56:45;99487.16;;;17.12;100.00
10060;BME280;5069;49.306;8.636;2023-08-06T03:59:47;99487.34;;;17.09;100.00
10060;BME280;5069;49.306;8.636;2023-08-06T04:02:58;99482.28;;;17.06;100.00
10060;BME280;5069;49.306;8.636;2023-08-06T04:06:03;99487.31;;;16.98;100.00
10060;BME280;5069;49.306;8.636;2023-08-06T04:09:04;99491.81;;;16.97;100.00
10060;BME280;5069;49.306;8.636;2023-08-06T04:12:06;99497.78;;;16.88;100.00
10060;BME280;5069;49.306;8.636;2023-08-06T04:15:08;99493.78;;;16.82;100.00
10060;BME280;5069;49.306;8.636;2023-08-06T04:18:09;99494.22;;;16.76;100.00
10060;BME280;5069;49.306;8.636;2023-08-06T04:21:11;99481.81;;;16.64;100.00
10060;BME280;5069;49.306;8.636;2023-08-06T04:24:12;99491.72;;;16.62;100.00
10060;BME280;5069;49.306;8.636;2023-08-06T04:27:15;99498.72;;;16.63;100.00
10060;BME280;5069;49.306;8.636;2023-08-06T04:30:18;99502.78;;;16.69;100.00
10060;BME280;5069;49.306;8.636;2023-08-06T04:33:22;99496.72;;;16.67;100.00
10060;BME280;5069;49.306;8.636;2023-08-06T04:36:25;99496.59;;;16.68;100.00
10060;BME280;5069;49.306;8.636;2023-08-06T04:39:26;99501.59;;;16.73;100.00
10060;BME280;5069;49.306;8.636;2023-08-06T04:42:29;99494.06;;;16.67;100.00
10060;BME280;5069;49.306;8.636;2023-08-06T04:45:31;99502.78;;;16.69;100.00
10060;BME280;5069;49.306;8.636;2023-08-06T04:48:32;99500.97;;;16.57;100.00
10060;BME280;5069;49.306;8.636;2023-08-06T04:51:33;99503.44;;;16.60;100.00
10060;BME280;5069;49.306;8.636;2023-08-06T04:54:35;99507.47;;;16.65;100.00
10060;BME280;5069;49.306;8.636;2023-08-06T04:57:36;99503.50;;;16.58;100.00
10060;BME280;5069;49.306;8.636;2023-08-06T05:00:38;99503.94;;;16.52;100.00
10060;BME280;5069;49.306;8.636;2023-08-06T05:03:39;99499.59;;;16.51;100.00
10060;BME280;5069;49.306;8.636;2023-08-06T05:06:41;99493.53;;;16.49;100.00
10060;BME280;5069;49.306;8.636;2023-08-06T05:09:42;99499.97;;;16.58;100.00
10060;BME280;5069;49.306;8.636;2023-08-06T05:12:44;99500.84;;;16.58;100.00
10060;BME280;5069;49.306;8.636;2023-08-06T05:15:45;99499.81;;;16.48;100.00
10060;BME280;5069;49.306;8.636;2023-08-06T05:18:47;99504.50;;;16.44;100.00
10060;BME280;5069;49.306;8.636;2023-08-06T05:21:49;99501.50;;;16.49;100.00
10060;BME280;5069;49.306;8.636;2023-08-06T05:24:51;99497.06;;;16.37;100.00
10060;BME280;5069;49.306;8.636;2023-08-06T05:27:52;99507.72;;;16.37;100.00
10060;BME280;5069;49.306;8.636;2023-08-06T05:30:54;99501.50;;;16.49;100.00
10060;BME280;5069;49.306;8.636;2023-08-06T05:33:56;99499.41;;;16.41;100.00
10060;BME280;5069;49.306;8.636;2023-08-06T05:36:57;99497.75;;;16.28;100.00
10060;BME280;5069;49.306;8.636;2023-08-06T05:39:58;99497.94;;;16.25;100.00
10060;BME280;5069;49.306;8.636;2023-08-06T05:43:00;99501.44;;;16.25;100.00
10060;BME280;5069;49.306;8.636;2023-08-06T05:46:02;99503.50;;;16.09;100.00
10060;BME280;5069;49.306;8.636;2023-08-06T05:49:03;99507.22;;;16.06;100.00
10060;BME280;5069;49.306;8.636;2023-08-06T05:52:06;99514.75;;;16.12;100.00
10060;BME280;5069;49.306;8.636;2023-08-06T05:55:09;99515.75;;;16.11;100.00
10060;BME280;5069;49.306;8.636;2023-08-06T05:58:11;99522.72;;;16.12;100.00
10060;BME280;5069;49.306;8.636;2023-08-06T06:01:12;99518.81;;;16.05;100.00
10060;BME280;5069;49.306;8.636;2023-08-06T06:04:14;99525.81;;;16.06;100.00
10060;BME280;5069;49.306;8.636;2023-08-06T06:07:15;99525.38;;;16.12;100.00
10060;BME280;5069;49.306;8.636;2023-08-06T06:10:17;99517.63;;;16.09;100.00
10060;BME280;5069;49.306;8.636;2023-08-06T06:13:19;99530.72;;;16.12;100.00
10060;BME280;5069;49.306;8.636;2023-08-06T06:16:20;99522.19;;;16.07;100.00
10060;BME280;5069;49.306;8.636;2023-08-06T06:19:21;99528.50;;;15.94;100.00
10060;BME280;5069;49.306;8.636;2023-08-06T06:22:23;99526.66;;;16.07;100.00
10060;BME280;5069;49.306;8.636;2023-08-06T06:25:24;99526.38;;;16.11;100.00
10060;BME280;5069;49.306;8.636;2023-08-06T06:28:26;99529.22;;;16.08;100.00
10060;BME280;5069;49.306;8.636;2023-08-06T06:31:27;99531.13;;;16.06;100.00
10060;BME280;5069;49.306;8.636;2023-08-06T06:34:29;99536.44;;;16.06;100.00
10060;BME280;5069;49.306;8.636;2023-08-06T06:37:30;99539.00;;;16.08;100.00
10060;BME280;5069;49.306;8.636;2023-08-06T06:40:32;99537.72;;;16.13;100.00
10060;BME280;5069;49.306;8.636;2023-08-06T06:43:34;99542.94;;;16.15;100.00
10060;BME280;5069;49.306;8.636;2023-08-06T06:46:36;99542.41;;;16.10;100.00
10060;BME280;5069;49.306;8.636;2023-08-06T06:49:37;99547.50;;;16.13;100.00
10060;BME280;5069;49.306;8.636;2023-08-06T06:52:39;99545.50;;;16.17;100.00
10060;BME280;5069;49.306;8.636;2023-08-06T06:55:40;99542.41;;;16.23;100.00
10060;BME280;5069;49.306;8.636;2023-08-06T06:58:41;99537.91;;;16.36;100.00
10060;BME280;5069;49.306;8.636;2023-08-06T07:01:43;99533.69;;;16.21;100.00
10060;BME280;5069;49.306;8.636;2023-08-06T07:04:45;99533.69;;;16.33;100.00
10060;BME280;5069;49.306;8.636;2023-08-06T07:07:46;99522.69;;;16.50;100.00
10060;BME280;5069;49.306;8.636;2023-08-06T07:10:49;99520.88;;;16.51;100.00
10060;BME280;5069;49.306;8.636;2023-08-06T07:13:56;99521.41;;;16.56;100.00
10060;BME280;5069;49.306;8.636;2023-08-06T07:16:59;99517.25;;;16.65;100.00
10060;BME280;5069;49.306;8.636;2023-08-06T07:20:00;99525.13;;;16.66;100.00
10060;BME280;5069;49.306;8.636;2023-08-06T07:23:02;99533.00;;;16.68;100.00
10060;BME280;5069;49.306;8.636;2023-08-06T07:26:03;99531.06;;;16.70;100.00
10060;BME280;5069;49.306;8.636;2023-08-06T07:29:05;99529.66;;;16.77;100.00
10060;BME280;5069;49.306;8.636;2023-08-06T07:32:07;99539.50;;;16.64;100.00
10060;BME280;5069;49.306;8.636;2023-08-06T07:35:08;99534.06;;;16.65;100.00
10060;BME280;5069;49.306;8.636;2023-08-06T07:38:13;99534.06;;;16.65;100.00
10060;BME280;5069;49.306;8.636;2023-08-06T07:41:15;99540.84;;;16.69;100.00
10060;BME280;5069;49.306;8.636;2023-08-06T07:44:16;99540.66;;;16.72;100.00
10060;BME280;5069;49.306;8.636;2023-08-06T07:47:18;99541.72;;;16.70;100.00
10060;BME280;5069;49.306;8.636;2023-08-06T07:50:20;99541.09;;;16.66;100.00
10060;BME280;5069;49.306;8.636;2023-08-06T07:53:22;99539.16;;;16.56;100.00
10060;BME280;5069;49.306;8.636;2023-08-06T07:56:23;99533.66;;;16.46;100.00
10060;BME280;5069;49.306;8.636;2023-08-06T07:59:25;99541.53;;;16.60;100.00
10060;BME280;5069;49.306;8.636;2023-08-06T08:02:27;99542.28;;;16.49;100.00
10060;BME280;5069;49.306;8.636;2023-08-06T08:05:28;99545.78;;;16.50;100.00
10060;BME280;5069;49.306;8.636;2023-08-06T08:08:30;99543.53;;;16.57;100.00
10060;BME280;5069;49.306;8.636;2023-08-06T08:11:31;99542.78;;;16.67;100.00
10060;BME280;5069;49.306;8.636;2023-08-06T08:14:33;99536.28;;;16.71;100.00
10060;BME280;5069;49.306;8.636;2023-08-06T08:17:37;99532.06;;;16.69;100.00
10060;BME280;5069;49.306;8.636;2023-08-06T08:20:38;99539.72;;;16.61;100.00
10060;BME280;5069;49.306;8.636;2023-08-06T08:23:40;99531.28;;;16.79;100.00
10060;BME280;5069;49.306;8.636;2023-08-06T08:26:43;99525.66;;;16.95;100.00
10060;BME280;5069;49.306;8.636;2023-08-06T08:29:45;99524.47;;;16.99;100.00
10060;BME280;5069;49.306;8.636;2023-08-06T08:32:47;99521.66;;;16.89;100.00
10060;BME280;5069;49.306;8.636;2023-08-06T08:35:48;99513.34;;;16.81;100.00
10060;BME280;5069;49.306;8.636;2023-08-06T08:38:50;99517.38;;;16.87;100.00
10060;BME280;5069;49.306;8.636;2023-08-06T08:41:55;99520.97;;;16.99;100.00
10060;BME280;5069;49.306;8.636;2023-08-06T08:44:57;99509.25;;;17.01;100.00
10060;BME280;5069;49.306;8.636;2023-08-06T08:47:58;99511.84;;;17.14;100.00
10060;BME280;5069;49.306;8.636;2023-08-06T08:51:00;99515.53;;;17.24;100.00
10060;BME280;5069;49.306;8.636;2023-08-06T08:54:07;99521.69;;;17.24;100.00
10060;BME280;5069;49.306;8.636;2023-08-06T08:57:09;99510.34;;;17.33;100.00
10060;BME280;5069;49.306;8.636;2023-08-06T09:00:11;99510.59;;;17.30;100.00
10060;BME280;5069;49.306;8.636;2023-08-06T09:03:12;99514.16;;;17.42;100.00
10060;BME280;5069;49.306;8.636;2023-08-06T09:06:15;99514.28;;;17.17;100.00
10060;BME280;5069;49.306;8.636;2023-08-06T09:09:26;99503.31;;;17.09;100.00
10060;BME280;5069;49.306;8.636;2023-08-06T09:12:29;99507.69;;;17.10;100.00
10060;BME280;5069;49.306;8.636;2023-08-06T09:15:32;99510.16;;;17.13;100.00
10060;BME280;5069;49.306;8.636;2023-08-06T09:18:34;99512.63;;;17.27;100.00
10060;BME280;5069;49.306;8.636;2023-08-06T09:21:42;99514.16;;;17.42;100.00
10060;BME280;5069;49.306;8.636;2023-08-06T09:24:44;99512.22;;;17.55;100.00
10060;BME280;5069;49.306;8.636;2023-08-06T09:27:46;99509.16;;;17.72;100.00
10060;BME280;5069;49.306;8.636;2023-08-06T09:30:49;99514.53;;;17.95;100.00
10060;BME280;5069;49.306;8.636;2023-08-06T09:33:51;99498.31;;;17.98;100.00
10060;BME280;5069;49.306;8.636;2023-08-06T09:36:53;99508.00;;;17.99;100.00
10060;BME280;5069;49.306;8.636;2023-08-06T09:39:55;99503.75;;;17.96;100.00
10060;BME280;5069;49.306;8.636;2023-08-06T09:42:57;99512.09;;;17.92;100.00
10060;BME280;5069;49.306;8.636;2023-08-06T09:45:59;99504.69;;;17.84;100.00
10060;BME280;5069;49.306;8.636;2023-08-06T09:49:00;99514.63;;;17.71;100.00
10060;BME280;5069;49.306;8.636;2023-08-06T09:52:03;99514.78;;;17.57;100.00
10060;BME280;5069;49.306;8.636;2023-08-06T09:55:06;99519.00;;;17.48;100.00
10060;BME280;5069;49.306;8.636;2023-08-06T09:58:08;99515.56;;;17.35;100.00
10060;BME280;5069;49.306;8.636;2023-08-06T10:01:10;99521.50;;;17.15;100.00
10060;BME280;5069;49.306;8.636;2023-08-06T10:04:14;99525.16;;;17.14;100.00
10060;BME280;5069;49.306;8.636;2023-08-06T10:07:24;99532.41;;;17.12;100.00
10060;BME280;5069;49.306;8.636;2023-08-06T10:10:27;99523.69;;;17.10;100.00
10060;BME280;5069;49.306;8.636;2023-08-06T10:13:30;99534.25;;;16.99;100.00
10060;BME280;5069;49.306;8.636;2023-08-06T10:16:33;99537.16;;;16.96;100.00
10060;BME280;5069;49.306;8.636;2023-08-06T10:19:35;99539.88;;;17.07;100.00
10060;BME280;5069;49.306;8.636;2023-08-06T10:22:42;99533.66;;;17.19;100.00
10060;BME280;5069;49.306;8.636;2023-08-06T10:25:53;99528.44;;;17.17;100.00
10060;BME280;5069;49.306;8.636;2023-08-06T10:28:55;99532.72;;;17.20;100.00
10060;BME280;5069;49.306;8.636;2023-08-06T10:31:59;99525.16;;;17.14;100.00
10060;BME280;5069;49.306;8.636;2023-08-06T10:35:01;99536.38;;;17.30;100.00
10060;BME280;5069;49.306;8.636;2023-08-06T10:38:07;99543.88;;;17.25;100.00
10060;BME280;5069;49.306;8.636;2023-08-06T10:41:15;99538.09;;;17.31;100.00
10060;BME280;5069;49.306;8.636;2023-08-06T10:44:17;99554.63;;;17.23;100.00
10060;BME280;5069;49.306;8.636;2023-08-06T10:47:28;99556.69;;;17.20;100.00
10060;BME280;5069;49.306;8.636;2023-08-06T10:50:30;99554.25;;;17.04;100.00
10060;BME280;5069;49.306;8.636;2023-08-06T10:53:33;99561.84;;;16.98;100.00
10060;BME280;5069;49.306;8.636;2023-08-06T10:56:40;99562.31;;;16.91;100.00
10060;BME280;5069;49.306;8.636;2023-08-06T10:59:43;99568.41;;;16.81;100.00
10060;BME280;5069;49.306;8.636;2023-08-06T11:02:47;99568.03;;;16.74;100.00
10060;BME280;5069;49.306;8.636;2023-08-06T11:05:50;99580.97;;;16.91;100.00
10060;BME280;5069;49.306;8.636;2023-08-06T11:08:53;99583.31;;;16.83;100.00
10060;BME280;5069;49.306;8.636;2023-08-06T11:11:55;99587.88;;;16.81;100.00
10060;BME280;5069;49.306;8.636;2023-08-06T11:14:57;99588.31;;;16.75;100.00
10060;BME280;5069;49.306;8.636;2023-08-06T11:17:58;99589.81;;;16.79;100.00
10060;BME280;5069;49.306;8.636;2023-08-06T11:21:01;99607.63;;;16.66;100.00
10060;BME280;5069;49.306;8.636;2023-08-06T11:24:02;99593.88;;;16.72;100.00
10060;BME280;5069;49.306;8.636;2023-08-06T11:27:11;99610.28;;;16.66;100.00
10060;BME280;5069;49.306;8.636;2023-08-06T11:30:14;99614.31;;;16.72;100.00
10060;BME280;5069;49.306;8.636;2023-08-06T11:33:26;99615.59;;;16.66;100.00
10060;BME280;5069;49.306;8.636;2023-08-06T11:36:31;99625.91;;;16.71;100.00
10060;BME280;5069;49.306;8.636;2023-08-06T11:39:35;99624.75;;;16.49;100.00
10060;BME280;5069;49.306;8.636;2023-08-06T11:42:36;99632.81;;;16.48;100.00
10060;BME280;5069;49.306;8.636;2023-08-06T11:45:38;99639.66;;;16.65;100.00
10060;BME280;5069;49.306;8.636;2023-08-06T11:51:54;99657.56;;;16.63;100.00
10060;BME280;5069;49.306;8.636;2023-08-06T11:55:03;99657.13;;;16.69;100.00
10060;BME280;5069;49.306;8.636;2023-08-06T11:58:09;99656.03;;;16.71;100.00
10060;BME280;5069;49.306;8.636;2023-08-06T12:01:11;99671.16;;;16.83;100.00
10060;BME280;5069;49.306;8.636;2023-08-06T12:04:12;99677.75;;;16.78;100.00
10060;BME280;5069;49.306;8.636;2023-08-06T12:07:15;99670.91;;;16.86;100.00
10060;BME280;5069;49.306;8.636;2023-08-06T12:10:18;99685.72;;;16.90;100.00
10060;BME280;5069;49.306;8.636;2023-08-06T12:13:21;99691.06;;;16.90;100.00
10060;BME280;5069;49.306;8.636;2023-08-06T12:16:22;99693.19;;;16.85;100.00
10060;BME280;5069;49.306;8.636;2023-08-06T12:19:25;99690.09;;;16.91;100.00
10060;BME280;5069;49.306;8.636;2023-08-06T12:22:27;99686.25;;;16.96;100.00
10060;BME280;5069;49.306;8.636;2023-08-06T12:25:29;99713.06;;;16.92;100.00
10060;BME280;5069;49.306;8.636;2023-08-06T12:28:30;99710.66;;;16.89;100.00
10060;BME280;5069;49.306;8.636;2023-08-06T12:31:32;99713.06;;;16.92;100.00
10060;BME280;5069;49.306;8.636;2023-08-06T12:34:33;99716.25;;;16.98;100.00
10060;BME280;5069;49.306;8.636;2023-08-06T12:37:51;99723.09;;;16.89;100.00
10060;BME280;5069;49.306;8.636;2023-08-06T12:40:55;99728.00;;;16.82;100.00
10060;BME280;5069;49.306;8.636;2023-08-06T12:43:57;99729.69;;;16.71;100.00
10060;BME280;5069;49.306;8.636;2023-08-06T12:46:58;99734.16;;;16.70;100.00
10060;BME280;5069;49.306;8.636;2023-08-06T12:50:00;99731.59;;;16.56;100.00
10060;BME280;5069;49.306;8.636;2023-08-06T12:53:02;99754.16;;;16.63;100.00
10060;BME280;5069;49.306;8.636;2023-08-06T12:56:05;99755.34;;;16.59;100.00
10060;BME280;5069;49.306;8.636;2023-08-06T12:59:07;99761.00;;;16.67;100.00
10060;BME280;5069;49.306;8.636;2023-08-06T13:02:08;99760.38;;;16.76;100.00
10060;BME280;5069;49.306;8.636;2023-08-06T13:05:10;99765.06;;;16.73;100.00
10060;BME280;5069;49.306;8.636;2023-08-06T13:08:11;99773.56;;;16.78;100.00
10060;BME280;5069;49.306;8.636;2023-08-06T13:11:13;99777.53;;;16.85;100.00
10060;BME280;5069;49.306;8.636;2023-08-06T13:14:14;99776.78;;;16.96;100.00
10060;BME280;5069;49.306;8.636;2023-08-06T13:17:15;99776.13;;;17.05;100.00
10060;BME280;5069;49.306;8.636;2023-08-06T13:20:17;99775.59;;;17.00;100.00
10060;BME280;5069;49.306;8.636;2023-08-06T13:23:21;99778.47;;;16.97;100.00
10060;BME280;5069;49.306;8.636;2023-08-06T13:26:23;99779.53;;;17.19;100.00
10060;BME280;5069;49.306;8.636;2023-08-06T13:29:25;99784.63;;;17.10;100.00
10060;BME280;5069;49.306;8.636;2023-08-06T13:32:27;99793.91;;;17.17;100.00
10060;BME280;5069;49.306;8.636;2023-08-06T13:35:28;99788.91;;;17.00;100.00
10060;BME280;5069;49.306;8.636;2023-08-06T13:38:30;99794.03;;;17.03;100.00
10060;BME280;5069;49.306;8.636;2023-08-06T13:41:31;99787.00;;;17.02;100.00
10060;BME280;5069;49.306;8.636;2023-08-06T13:44:33;99798.59;;;16.88;100.00
10060;BME280;5069;49.306;8.636;2023-08-06T13:47:37;99800.81;;;16.81;100.00
10060;BME280;5069;49.306;8.636;2023-08-06T13:50:38;99809.34;;;16.86;100.00
10060;BME280;5069;49.306;8.636;2023-08-06T13:53:41;99807.25;;;16.91;100.00
10060;BME280;5069;49.306;8.636;2023-08-06T13:56:43;99813.53;;;16.90;100.00
10060;BME280;5069;49.306;8.636;2023-08-06T13:59:44;99820.84;;;17.00;100.00
10060;BME280;5069;49.306;8.636;2023-08-06T14:02:46;99819.56;;;16.92;100.00
10060;BME280;5069;49.306;8.636;2023-08-06T14:05:47;99824.47;;;16.86;100.00
10060;BME280;5069;49.306;8.636;2023-08-06T14:08:50;99831.28;;;16.77;100.00
10060;BME280;5069;49.306;8.636;2023-08-06T14:11:51;99840.00;;;16.79;100.00
10060;BME280;5069;49.306;8.636;2023-08-06T14:14:53;99844.16;;;16.83;100.00
10060;BME280;5069;49.306;8.636;2023-08-06T14:17:55;99846.91;;;16.82;100.00
10060;BME280;5069;49.306;8.636;2023-08-06T14:20:56;99846.84;;;16.83;100.00
10060;BME280;5069;49.306;8.636;2023-08-06T14:23:58;99851.28;;;16.83;100.00
10060;BME280;5069;49.306;8.636;2023-08-06T14:26:59;99855.13;;;16.79;100.00
10060;BME280;5069;49.306;8.636;2023-08-06T14:30:01;99860.78;;;16.87;100.00
10060;BME280;5069;49.306;8.636;2023-08-06T14:33:04;99861.91;;;16.70;100.00
10060;BME280;5069;49.306;8.636;2023-08-06T14:36:26;99863.66;;;16.84;100.00
10060;BME280;5069;49.306;8.636;2023-08-06T14:39:27;99868.88;;;16.85;100.00
10060;BME280;5069;49.306;8.636;2023-08-06T14:42:29;99864.28;;;16.87;100.00
10060;BME280;5069;49.306;8.636;2023-08-06T14:45:30;99862.16;;;16.92;100.00
10060;BME280;5069;49.306;8.636;2023-08-06T14:48:31;99870.91;;;16.94;100.00
10060;BME280;5069;49.306;8.636;2023-08-06T14:51:33;99866.00;;;16.88;100.00
10060;BME280;5069;49.306;8.636;2023-08-06T14:54:36;99867.91;;;16.86;100.00
10060;BME280;5069;49.306;8.636;2023-08-06T14:57:37;99878.78;;;16.83;100.00
10060;BME280;5069;49.306;8.636;2023-08-06T15:00:39;99881.31;;;16.72;100.00
10060;BME280;5069;49.306;8.636;2023-08-06T15:03:40;99871.66;;;16.57;100.00
10060;BME280;5069;49.306;8.636;2023-08-06T15:06:42;99899.88;;;16.60;100.00
10060;BME280;5069;49.306;8.636;2023-08-06T15:09:43;99881.84;;;16.50;100.00
10060;BME280;5069;49.306;8.636;2023-08-06T15:13:05;99886.00;;;16.28;100.00
10060;BME280;5069;49.306;8.636;2023-08-06T15:16:07;99899.97;;;16.31;100.00
10060;BME280;5069;49.306;8.636;2023-08-06T15:19:09;99911.66;;;16.29;100.00
10060;BME280;5069;49.306;8.636;2023-08-06T15:22:10;99912.84;;;16.10;100.00
10060;BME280;5069;49.306;8.636;2023-08-06T15:25:13;99912.94;;;16.09;100.00
10060;BME280;5069;49.306;8.636;2023-08-06T15:28:15;99923.44;;;16.25;100.00
10060;BME280;5069;49.306;8.636;2023-08-06T15:31:20;99924.53;;;16.35;100.00
10060;BME280;5069;49.306;8.636;2023-08-06T15:34:22;99916.28;;;16.39;100.00
10060;BME280;5069;49.306;8.636;2023-08-06T15:37:24;99932.03;;;16.42;100.00
10060;BME280;5069;49.306;8.636;2023-08-06T15:40:25;99939.31;;;16.53;100.00
10060;BME280;5069;49.306;8.636;2023-08-06T15:43:28;99943.75;;;16.40;100.00
10060;BME280;5069;49.306;8.636;2023-08-06T15:46:30;99939.75;;;16.33;100.00
10060;BME280;5069;49.306;8.636;2023-08-06T15:49:31;99955.16;;;16.13;100.00
10060;BME280;5069;49.306;8.636;2023-08-06T15:52:33;99952.91;;;16.07;100.00
10060;BME280;5069;49.306;8.636;2023-08-06T15:55:35;99966.97;;;15.95;100.00
10060;BME280;5069;49.306;8.636;2023-08-06T15:58:39;99959.78;;;15.83;100.00
10060;BME280;5069;49.306;8.636;2023-08-06T16:01:41;99955.94;;;15.73;100.00
10060;BME280;5069;49.306;8.636;2023-08-06T16:04:42;99959.56;;;15.86;100.00
10060;BME280;5069;49.306;8.636;2023-08-06T16:07:44;99955.13;;;15.87;100.00
10060;BME280;5069;49.306;8.636;2023-08-06T16:10:45;99958.97;;;15.95;100.00